Time;durP1;ratioP1;P1;durP2;ratioP2;P2;SDS_P1;SDS_P2;PMS_P1;PMS_P2;Temp;Humidity;BMP_temperature;BMP_pressure;BME280_temperature;BME280_humidity;BME280_pressure;Samples;Min_cycle;Max_cycle;Signal;HPM_P1;HPM_P2
2022/02/21 00:01:26;;;;;;;10.90;4.60;;;;;1.80;97413.40;;;;110515;1251;41154;-69
2022/02/21 00:03:57;;;;;;;12.40;4.90;;;;;1.74;97411.20;;;;110686;1250;41149;-63
2022/02/21 00:06:26;;;;;;;12.60;5.00;;;;;1.70;97411.80;;;;110541;1253;41251;-63
2022/02/21 00:08:56;;;;;;;10.80;4.30;;;;;1.70;97409.40;;;;110614;1251;41662;-68
2022/02/21 00:11:25;;;;;;;11.10;4.70;;;;;1.70;97413.40;;;;110610;1253;41849;-63
2022/02/21 00:13:57;;;;;;;10.60;4.30;;;;;1.60;97412.80;;;;110439;1251;41138;-71
2022/02/21 00:16:27;;;;;;;15.10;4.90;;;;;1.60;97420.40;;;;110722;1250;40897;-69
2022/02/21 00:18:58;;;;;;;12.00;4.60;;;;;1.60;97419.00;;;;110435;1253;41202;-70
2022/02/21 00:21:29;;;;;;;12.50;4.80;;;;;1.60;97409.20;;;;110695;1250;42221;-68
2022/02/21 00:23:58;;;;;;;12.10;4.60;;;;;1.58;97406.80;;;;110563;1253;42348;-70
2022/02/21 00:26:28;;;;;;;11.90;4.80;;;;;1.50;97408.60;;;;110546;1253;41902;-72
2022/02/21 00:28:58;;;;;;;12.20;4.80;;;;;1.50;97411.00;;;;110404;1253;41769;-64
2022/02/21 00:31:27;;;;;;;16.00;5.40;;;;;1.50;97405.00;;;;110573;1253;42073;-64
2022/02/21 00:33:58;;;;;;;13.60;4.60;;;;;1.50;97401.20;;;;110535;1251;40870;-67
2022/02/21 00:36:28;;;;;;;12.70;5.10;;;;;1.44;97400.60;;;;110708;1250;42389;-67
2022/02/21 00:38:58;;;;;;;11.00;4.70;;;;;1.40;97387.80;;;;110485;1253;41122;-63
2022/02/21 00:41:28;;;;;;;11.10;5.10;;;;;1.40;97384.60;;;;110541;1251;41124;-64
2022/02/21 00:43:58;;;;;;;11.70;4.80;;;;;1.30;97375.00;;;;110524;1253;41201;-70
2022/02/21 00:46:28;;;;;;;11.20;5.00;;;;;1.30;97368.60;;;;110500;1253;42038;-69
2022/02/21 00:48:58;;;;;;;9.50;4.50;;;;;1.28;97375.20;;;;110558;1252;41184;-70
2022/02/21 00:51:28;;;;;;;13.50;5.10;;;;;1.30;97383.20;;;;110716;1250;41609;-70
2022/02/21 00:53:58;;;;;;;11.70;4.80;;;;;1.30;97387.00;;;;110609;1253;41150;-70
2022/02/21 00:56:28;;;;;;;10.70;4.60;;;;;1.20;97390.00;;;;110703;1253;41146;-70
2022/02/21 00:58:58;;;;;;;15.00;5.60;;;;;1.20;97390.60;;;;110490;1253;41162;-63
2022/02/21 01:01:27;;;;;;;12.30;4.90;;;;;1.20;97377.60;;;;110695;1250;41163;-64
2022/02/21 01:03:57;;;;;;;10.30;4.20;;;;;1.10;97365.00;;;;110508;1252;41272;-64
2022/02/21 01:06:28;;;;;;;11.30;4.60;;;;;1.12;97360.20;;;;110678;1250;41258;-64
2022/02/21 01:08:59;;;;;;;13.30;4.90;;;;;1.10;97351.40;;;;110662;1250;41149;-61
2022/02/21 01:11:30;;;;;;;15.60;5.70;;;;;1.10;97351.80;;;;110779;1250;41654;-63
2022/02/21 01:14:00;;;;;;;11.60;5.20;;;;;1.00;97354.60;;;;110664;1250;42132;-62
2022/02/21 01:16:30;;;;;;;12.60;4.70;;;;;1.00;97352.60;;;;110511;1253;41169;-70
2022/02/21 01:19:00;;;;;;;12.50;4.90;;;;;0.92;97351.40;;;;110536;1254;41595;-72
2022/02/21 01:21:31;;;;;;;9.90;4.30;;;;;0.90;97344.60;;;;110605;1253;43033;-67
2022/02/21 01:24:01;;;;;;;11.40;4.80;;;;;0.90;97343.60;;;;110595;1252;41623;-67
2022/02/21 01:26:32;;;;;;;10.50;4.60;;;;;0.90;97341.60;;;;110544;1253;41872;-70
2022/02/21 01:29:02;;;;;;;13.70;4.80;;;;;0.90;97339.80;;;;110790;1250;41180;-69
2022/02/21 01:31:32;;;;;;;13.70;4.90;;;;;0.80;97330.20;;;;110587;1250;41271;-69
2022/02/21 01:34:02;;;;;;;16.00;5.20;;;;;0.80;97323.20;;;;110573;1253;41269;-67
2022/02/21 01:36:33;;;;;;;15.00;5.40;;;;;0.80;97328.60;;;;110672;1250;41244;-71
2022/02/21 01:39:03;;;;;;;14.30;5.20;;;;;0.76;97330.20;;;;110456;1253;41149;-69
2022/02/21 01:41:34;;;;;;;11.00;4.90;;;;;0.70;97328.40;;;;110495;1253;42173;-70
2022/02/21 01:44:11;;;;;;;12.00;4.80;;;;;0.70;97329.80;;;;110685;1252;42015;-72
2022/02/21 01:46:42;;;;;;;12.10;4.90;;;;;0.60;97329.00;;;;110506;1253;42547;-72
2022/02/21 01:49:13;;;;;;;13.20;4.90;;;;;0.60;97325.20;;;;110519;1253;41776;-66
2022/02/21 01:51:43;;;;;;;11.90;4.40;;;;;0.50;97319.60;;;;110583;1251;42684;-61
2022/02/21 01:54:13;;;;;;;11.80;4.80;;;;;0.50;97318.20;;;;110789;1250;41249;-63
2022/02/21 01:56:43;;;;;;;10.30;4.60;;;;;0.50;97317.80;;;;110514;1253;41277;-70
2022/02/21 01:59:14;;;;;;;12.10;4.70;;;;;0.46;97312.80;;;;110560;1253;41263;-67
2022/02/21 02:01:44;;;;;;;9.90;4.70;;;;;0.40;97313.80;;;;110479;1251;42083;-72
2022/02/21 02:04:14;;;;;;;;;;;;;0.36;97306.00;;;;110721;1251;41260;-70
2022/02/21 02:06:47;;;;;;;11.50;4.50;;;;;0.30;97312.80;;;;110582;1253;41620;-65
2022/02/21 02:09:17;;;;;;;10.00;4.30;;;;;0.30;97306.60;;;;110700;1251;41857;-66
2022/02/21 02:11:47;;;;;;;10.70;5.00;;;;;0.30;97300.40;;;;110726;1251;41536;-71
2022/02/21 02:14:46;;;;;;;10.60;4.80;;;;;0.30;97293.00;;;;110598;1253;41172;-73
2022/02/21 02:17:16;;;;;;;11.70;4.30;;;;;0.30;97287.40;;;;110645;1253;41241;-70
2022/02/21 02:19:47;;;;;;;10.30;4.30;;;;;0.30;97276.40;;;;110730;1250;41165;-71
2022/02/21 02:22:18;;;;;;;12.10;4.90;;;;;0.30;97274.40;;;;110573;1253;41825;-71
2022/02/21 02:24:53;;;;;;;10.80;4.60;;;;;0.20;97275.00;;;;110664;1252;41142;-71
2022/02/21 02:27:23;;;;;;;12.10;4.80;;;;;0.20;97276.40;;;;110541;1250;41332;-70
2022/02/21 02:29:55;;;;;;;10.20;4.50;;;;;0.20;97275.80;;;;110749;1250;42055;-63
2022/02/21 02:32:25;;;;;;;11.60;4.90;;;;;0.16;97272.40;;;;110606;1253;41241;-67
2022/02/21 02:34:55;;;;;;;10.90;4.90;;;;;0.12;97275.80;;;;110525;1253;41645;-64
2022/02/21 02:37:26;;;;;;;9.70;4.30;;;;;0.12;97280.40;;;;110570;1252;41531;-63
2022/02/21 02:39:57;;;;;;;12.60;4.50;;;;;0.10;97275.40;;;;110538;1253;41157;-60
2022/02/21 02:42:27;;;;;;;;;;;;;0.10;97273.20;;;;110579;1253;41635;-60
2022/02/21 02:44:57;;;;;;;13.10;4.60;;;;;0.10;97274.20;;;;110287;1253;364575;-65
2022/02/21 02:47:27;;;;;;;12.90;4.80;;;;;0.10;97274.00;;;;110630;1253;41158;-70
2022/02/21 02:49:58;;;;;;;12.50;4.50;;;;;0.10;97269.80;;;;110557;1253;41187;-70
2022/02/21 02:52:28;;;;;;;14.50;5.70;;;;;0.04;97267.40;;;;110509;1252;43335;-70
2022/02/21 02:54:58;;;;;;;14.60;5.70;;;;;0.10;97262.40;;;;110662;1252;41158;-70
2022/02/21 02:57:28;;;;;;;13.80;5.20;;;;;0.12;97260.60;;;;110392;1253;41216;-64
2022/02/21 02:59:58;;;;;;;13.60;5.50;;;;;0.20;97258.00;;;;110598;1253;41137;-65
2022/02/21 03:02:28;;;;;;;16.20;5.60;;;;;0.28;97250.60;;;;110540;1250;40965;-63
2022/02/21 03:04:58;;;;;;;12.40;5.60;;;;;0.30;97258.00;;;;110546;1253;41158;-63
2022/02/21 03:07:28;;;;;;;14.10;5.50;;;;;0.30;97255.40;;;;110539;1253;41167;-64
2022/02/21 03:09:57;;;;;;;14.20;4.90;;;;;0.30;97255.20;;;;110533;1253;41731;-65
2022/02/21 03:12:27;;;;;;;12.00;4.90;;;;;0.22;97257.20;;;;110634;1253;41257;-61
2022/02/21 03:14:57;;;;;;;11.80;5.40;;;;;0.20;97262.80;;;;110380;1254;42406;-60
2022/02/21 03:17:28;;;;;;;11.10;4.60;;;;;0.20;97255.20;;;;110683;1250;41212;-63
2022/02/21 03:19:58;;;;;;;12.70;4.80;;;;;0.18;97245.60;;;;110610;1253;41194;-72
2022/02/21 03:22:28;;;;;;;13.00;5.30;;;;;0.20;97245.40;;;;110708;1250;42265;-66
2022/02/21 03:24:58;;;;;;;12.70;5.30;;;;;0.20;97242.40;;;;110769;1251;41242;-68
2022/02/21 03:27:28;;;;;;;13.00;4.90;;;;;0.20;97233.00;;;;110473;1253;41917;-68
2022/02/21 03:29:59;;;;;;;13.60;5.00;;;;;0.20;97236.00;;;;110695;1250;41157;-66
2022/02/21 03:32:29;;;;;;;;;;;;;0.12;97229.20;;;;110714;1253;41261;-64
2022/02/21 03:34:59;;;;;;;10.60;4.40;;;;;0.10;97226.60;;;;110664;1251;41404;-72
2022/02/21 03:37:29;;;;;;;13.10;5.60;;;;;0.10;97222.00;;;;110740;1250;41973;-68
2022/02/21 03:40:00;;;;;;;14.20;5.20;;;;;0.08;97208.80;;;;110717;1250;41157;-70
2022/02/21 03:42:31;;;;;;;12.10;5.10;;;;;0.00;97209.80;;;;110595;1253;42098;-69
2022/02/21 03:45:02;;;;;;;18.20;5.50;;;;;0.00;97204.60;;;;110775;1250;41278;-72
2022/02/21 03:47:32;;;;;;;11.80;4.90;;;;;0.00;97206.60;;;;110541;1251;41195;-66
2022/02/21 03:50:02;;;;;;;14.60;5.90;;;;;-0.02;97208.60;;;;110550;1253;41691;-67
2022/02/21 03:52:32;;;;;;;13.20;5.40;;;;;-0.10;97205.80;;;;110526;1253;41260;-63
2022/02/21 03:55:02;;;;;;;12.70;5.60;;;;;-0.10;97192.60;;;;110560;1253;41273;-68
2022/02/21 03:57:32;;;;;;;12.40;4.80;;;;;-0.10;97186.20;;;;110646;1253;41438;-67
2022/02/21 04:00:05;;;;;;;13.90;5.60;;;;;-0.10;97178.80;;;;110607;1253;41159;-69
2022/02/21 04:02:40;;;;;;;11.70;5.00;;;;;-0.08;97176.40;;;;110599;1253;41276;-68
2022/02/21 04:05:14;;;;;;;14.10;5.50;;;;;-0.06;97172.00;;;;110695;1253;41158;-71
2022/02/21 04:07:44;;;;;;;11.40;4.70;;;;;-0.10;97166.20;;;;110797;1250;42380;-69
2022/02/21 04:10:15;;;;;;;12.80;5.50;;;;;-0.10;97156.80;;;;110580;1253;42114;-71
2022/02/21 04:12:45;;;;;;;14.10;6.00;;;;;-0.10;97154.80;;;;110689;1250;41247;-65
2022/02/21 04:15:15;;;;;;;12.20;5.70;;;;;-0.10;97155.40;;;;110785;1251;41620;-73
2022/02/21 04:17:51;;;;;;;14.00;5.90;;;;;-0.10;97140.20;;;;110517;1253;41728;-69
2022/02/21 04:20:23;;;;;;;13.80;5.70;;;;;-0.10;97131.20;;;;110644;1253;42037;-62
2022/02/21 04:22:52;;;;;;;13.80;5.70;;;;;-0.10;97126.60;;;;110535;1253;41176;-65
2022/02/21 04:25:23;;;;;;;15.00;6.00;;;;;-0.18;97121.20;;;;110556;1253;41164;-70
2022/02/21 04:27:54;;;;;;;14.70;5.80;;;;;-0.20;97116.00;;;;110708;1250;41138;-64
2022/02/21 04:30:27;;;;;;;14.70;5.90;;;;;-0.20;97110.60;;;;110423;1253;41161;-64
2022/02/21 04:32:57;;;;;;;15.40;5.60;;;;;-0.20;97110.80;;;;110580;1253;41922;-63
2022/02/21 04:35:27;;;;;;;11.60;5.50;;;;;-0.20;97109.60;;;;110510;1253;41330;-63
2022/02/21 04:37:57;;;;;;;12.20;5.10;;;;;-0.20;97112.80;;;;110711;1250;41638;-68
2022/02/21 04:40:28;;;;;;;;;;;;;-0.20;97115.40;;;;110567;1253;41304;-71
2022/02/21 04:42:57;;;;;;;10.80;4.80;;;;;-0.20;97113.20;;;;110511;1253;41165;-69
2022/02/21 04:45:30;;;;;;;10.60;4.60;;;;;-0.20;97102.40;;;;110486;1253;41524;-71
2022/02/21 04:48:00;;;;;;;13.80;4.80;;;;;-0.20;97102.20;;;;110530;1253;41153;-68
2022/02/21 04:50:29;;;;;;;11.40;4.40;;;;;-0.20;97110.40;;;;110547;1253;41229;-66
2022/02/21 04:52:59;;;;;;;12.70;4.90;;;;;-0.20;97110.80;;;;110655;1251;41157;-65
2022/02/21 04:55:29;;;;;;;11.30;4.60;;;;;-0.20;97105.40;;;;110722;1251;41141;-65
2022/02/21 04:57:59;;;;;;;12.20;4.60;;;;;-0.20;97106.00;;;;110556;1253;41594;-62
2022/02/21 05:00:28;;;;;;;9.60;4.30;;;;;-0.20;97095.00;;;;110708;1250;41995;-62
2022/02/21 05:02:59;;;;;;;14.80;5.40;;;;;-0.16;97097.40;;;;110689;1251;42162;-64
2022/02/21 05:05:28;;;;;;;13.30;5.40;;;;;-0.10;97093.80;;;;110661;1251;41292;-61
2022/02/21 05:07:58;;;;;;;17.70;7.10;;;;;-0.10;97092.20;;;;110573;1253;41152;-64
2022/02/21 05:10:29;;;;;;;14.10;5.80;;;;;-0.10;97100.80;;;;110688;1250;41140;-69
2022/02/21 05:12:58;;;;;;;14.10;5.80;;;;;-0.02;97091.80;;;;110459;1251;41581;-66
2022/02/21 05:15:29;;;;;;;11.20;5.30;;;;;-0.02;97084.80;;;;110483;1253;41371;-65
2022/02/21 05:17:58;;;;;;;13.90;5.10;;;;;0.00;97081.20;;;;110436;1253;41175;-66
2022/02/21 05:20:27;;;;;;;13.10;5.40;;;;;0.00;97074.40;;;;110734;1252;41155;-63
2022/02/21 05:22:57;;;;;;;11.40;4.80;;;;;0.00;97076.00;;;;110710;1251;41307;-66
2022/02/21 05:25:27;;;;;;;10.70;4.70;;;;;0.02;97076.60;;;;110483;1253;41814;-69
2022/02/21 05:27:56;;;;;;;12.30;5.20;;;;;0.10;97076.60;;;;110510;1253;41151;-63
2022/02/21 05:30:26;;;;;;;13.70;5.50;;;;;0.10;97072.40;;;;110334;1253;41163;-67
2022/02/21 05:32:55;;;;;;;11.10;5.00;;;;;0.10;97073.20;;;;110526;1253;42332;-66
2022/02/21 05:35:25;;;;;;;11.40;4.50;;;;;0.10;97076.60;;;;110508;1253;41942;-70
2022/02/21 05:37:54;;;;;;;12.70;5.00;;;;;0.20;97078.80;;;;110750;1253;42199;-65
2022/02/21 05:40:24;;;;;;;13.80;4.70;;;;;0.20;97080.20;;;;110631;1253;41145;-63
2022/02/21 05:42:53;;;;;;;12.60;5.10;;;;;0.30;97075.40;;;;110512;1253;41268;-66
2022/02/21 05:45:23;;;;;;;12.40;5.10;;;;;0.34;97073.60;;;;110578;1253;41310;-67
2022/02/21 05:47:52;;;;;;;14.50;6.40;;;;;0.44;97065.20;;;;110460;1253;41284;-63
2022/02/21 05:50:23;;;;;;;11.50;4.80;;;;;0.60;97066.00;;;;110527;1253;42377;-66
2022/02/21 05:52:53;;;;;;;15.60;5.80;;;;;0.74;97066.20;;;;110717;1253;41133;-65
2022/02/21 05:55:22;;;;;;;13.90;5.30;;;;;0.90;97064.20;;;;110520;1253;41957;-69
2022/02/21 05:57:56;;;;;;;14.60;5.90;;;;;1.10;97059.60;;;;110517;1253;42096;-70
2022/02/21 06:00:26;;;;;;;18.10;6.80;;;;;1.30;97054.20;;;;110627;1250;42376;-70
2022/02/21 06:02:56;;;;;;;13.70;5.90;;;;;1.50;97046.00;;;;110786;1251;41258;-63
2022/02/21 06:05:25;;;;;;;14.80;6.60;;;;;1.70;97038.40;;;;110678;1251;42209;-65
2022/02/21 06:07:55;;;;;;;14.80;6.50;;;;;1.90;97037.60;;;;110781;1251;41145;-63
2022/02/21 06:10:24;;;;;;;14.60;5.80;;;;;2.10;97020.00;;;;110689;1253;41387;-63
2022/02/21 06:12:54;;;;;;;11.80;5.40;;;;;2.30;97013.40;;;;110899;1251;41601;-64
2022/02/21 06:15:23;;;;;;;12.10;5.40;;;;;2.48;97008.60;;;;110758;1250;41158;-68
2022/02/21 06:17:52;;;;;;;11.60;5.50;;;;;2.60;97005.40;;;;110785;1250;41260;-68
2022/02/21 06:20:21;;;;;;;11.90;5.50;;;;;2.72;96997.00;;;;110568;1253;42379;-72
2022/02/21 06:22:51;;;;;;;15.80;5.60;;;;;2.90;96989.20;;;;110789;1250;41916;-72
2022/02/21 06:25:21;;;;;;;9.90;4.80;;;;;3.06;96988.60;;;;110601;1253;41372;-68
2022/02/21 06:27:53;;;;;;;11.90;5.20;;;;;3.20;96986.00;;;;110544;1253;41189;-70
2022/02/21 06:30:23;;;;;;;12.30;5.20;;;;;3.40;96979.40;;;;110698;1253;41560;-65
2022/02/21 06:32:52;;;;;;;11.30;5.50;;;;;3.60;96969.00;;;;110547;1253;41261;-65
2022/02/21 06:35:22;;;;;;;12.40;5.50;;;;;3.76;96963.40;;;;110680;1250;41398;-62
2022/02/21 06:37:54;;;;;;;12.00;5.10;;;;;3.98;96959.40;;;;110724;1253;41162;-61
2022/02/21 06:40:24;;;;;;;17.50;6.50;;;;;4.20;96965.60;;;;110473;1253;41192;-64
2022/02/21 06:42:54;;;;;;;14.50;6.20;;;;;4.46;96952.20;;;;110581;1253;41250;-66
2022/02/21 06:45:24;;;;;;;11.90;5.20;;;;;4.70;96939.20;;;;110537;1254;41157;-66
2022/02/21 06:47:54;;;;;;;15.80;6.20;;;;;4.90;96938.20;;;;110535;1253;41442;-68
2022/02/21 06:50:24;;;;;;;12.40;5.50;;;;;5.22;96937.80;;;;110458;1253;41344;-70
2022/02/21 06:52:53;;;;;;;14.40;6.00;;;;;5.50;96936.80;;;;110405;1254;41172;-67
2022/02/21 06:55:23;;;;;;;12.30;5.30;;;;;5.80;96934.20;;;;110496;1254;41270;-64
2022/02/21 06:57:54;;;;;;;13.10;5.60;;;;;6.10;96921.80;;;;110742;1253;41539;-64
2022/02/21 07:00:23;;;;;;;12.80;5.00;;;;;6.40;96914.20;;;;110720;1253;41255;-64
2022/02/21 07:02:54;;;;;;;17.40;5.00;;;;;6.64;96905.00;;;;110580;1253;41156;-61
2022/02/21 07:05:23;;;;;;;11.20;5.00;;;;;6.80;96894.60;;;;110539;1254;41646;-67
2022/02/21 07:07:53;;;;;;;9.50;4.30;;;;;6.90;96900.20;;;;110596;1254;41394;-62
2022/02/21 07:10:23;;;;;;;11.00;4.60;;;;;7.00;96899.60;;;;110579;1253;41255;-70
2022/02/21 07:12:53;;;;;;;11.20;4.70;;;;;7.10;96891.60;;;;110705;1250;42164;-69
2022/02/21 07:15:24;;;;;;;11.90;5.00;;;;;7.10;96889.00;;;;110662;1251;41609;-71
2022/02/21 07:17:54;;;;;;;10.10;4.70;;;;;7.20;96893.40;;;;110707;1251;41466;-62
2022/02/21 07:20:25;;;;;;;9.40;4.30;;;;;7.10;96889.60;;;;110542;1251;41277;-71
2022/02/21 07:22:56;;;;;;;9.80;4.70;;;;;7.20;96887.40;;;;110509;1254;41167;-69
2022/02/21 07:25:29;;;;;;;9.50;4.00;;;;;7.42;96875.40;;;;110430;1254;41249;-61
2022/02/21 07:27:58;;;;;;;9.80;4.60;;;;;7.70;96873.80;;;;110471;1254;41157;-65
2022/02/21 07:30:29;;;;;;;11.20;4.80;;;;;7.90;96869.20;;;;110611;1254;41265;-67
2022/02/21 07:32:58;;;;;;;9.60;4.50;;;;;7.92;96865.60;;;;110619;1253;41787;-65
2022/02/21 07:35:28;;;;;;;11.90;4.50;;;;;8.00;96862.40;;;;110605;1253;41137;-61
2022/02/21 07:37:58;;;;;;;11.20;4.90;;;;;8.20;96858.80;;;;110541;1254;41145;-71
2022/02/21 07:40:29;;;;;;;11.90;4.70;;;;;8.30;96852.20;;;;110514;1254;41163;-61
2022/02/21 07:42:58;;;;;;;13.80;5.70;;;;;8.50;96847.40;;;;110817;1250;41384;-62
2022/02/21 07:45:28;;;;;;;13.50;5.20;;;;;8.70;96843.80;;;;110684;1250;41887;-62
2022/02/21 07:48:00;;;;;;;10.90;4.30;;;;;8.80;96850.80;;;;110492;1253;41536;-59
2022/02/21 07:50:30;;;;;;;9.40;3.90;;;;;8.84;96841.80;;;;110539;1254;41152;-64
2022/02/21 07:53:02;;;;;;;10.50;4.00;;;;;8.94;96841.20;;;;110619;1252;41981;-64
2022/02/21 07:55:32;;;;;;;7.90;3.50;;;;;9.00;96844.00;;;;110620;1253;41156;-63
2022/02/21 07:58:01;;;;;;;9.40;3.80;;;;;9.20;96849.40;;;;110800;1251;41621;-63
2022/02/21 08:00:30;;;;;;;9.20;3.70;;;;;9.30;96855.40;;;;110662;1254;41738;-63
2022/02/21 08:03:00;;;;;;;9.80;4.00;;;;;9.46;96840.60;;;;110622;1253;41159;-65
2022/02/21 08:05:29;;;;;;;9.50;4.00;;;;;9.28;96841.60;;;;110448;1254;41847;-70
2022/02/21 08:07:58;;;;;;;9.60;4.00;;;;;9.52;96830.00;;;;110472;1254;41160;-73
2022/02/21 08:10:27;;;;;;;8.20;3.20;;;;;9.22;96834.00;;;;110687;1251;41146;-69
2022/02/21 08:12:57;;;;;;;10.30;4.10;;;;;9.48;96830.60;;;;110831;1252;41628;-70
2022/02/21 08:15:26;;;;;;;8.80;3.70;;;;;9.44;96816.00;;;;110728;1252;41246;-71
2022/02/21 08:17:56;;;;;;;8.20;3.50;;;;;9.70;96801.20;;;;110807;1250;41148;-63
2022/02/21 08:20:26;;;;;;;10.70;3.50;;;;;10.00;96798.20;;;;110710;1252;42509;-65
2022/02/21 08:22:57;;;;;;;8.60;3.60;;;;;10.30;96796.60;;;;110768;1251;41169;-62
2022/02/21 08:25:27;;;;;;;8.50;3.40;;;;;10.70;96797.00;;;;110644;1251;41613;-65
2022/02/21 08:27:57;;;;;;;12.80;4.80;;;;;11.00;96781.60;;;;110665;1253;41309;-72
2022/02/21 08:30:26;;;;;;;10.60;4.10;;;;;11.42;96773.00;;;;110562;1253;41158;-68
2022/02/21 08:32:56;;;;;;;9.20;4.10;;;;;11.92;96772.60;;;;110677;1251;41169;-64
2022/02/21 08:35:26;;;;;;;7.80;3.50;;;;;12.20;96771.20;;;;110534;1254;41152;-68
2022/02/21 08:37:56;;;;;;;8.40;3.40;;;;;12.32;96768.00;;;;110578;1254;41163;-67
2022/02/21 08:40:32;;;;;;;8.60;3.10;;;;;12.34;96770.20;;;;110527;1254;41152;-69
2022/02/21 08:43:01;;;;;;;7.70;3.10;;;;;12.78;96769.60;;;;110569;1252;41587;-67
2022/02/21 08:45:31;;;;;;;8.10;3.50;;;;;13.30;96759.60;;;;110485;1253;41719;-70
2022/02/21 08:48:00;;;;;;;7.90;3.20;;;;;13.86;96752.60;;;;110706;1251;41790;-66
2022/02/21 08:50:29;;;;;;;7.30;2.90;;;;;14.38;96748.00;;;;110645;1251;41620;-64
2022/02/21 08:52:59;;;;;;;7.80;2.90;;;;;15.90;96721.40;;;;110560;1252;42496;-64
2022/02/21 08:55:28;;;;;;;8.80;2.70;;;;;18.48;96705.80;;;;110620;1253;41162;-63
2022/02/21 08:57:57;;;;;;;8.70;3.00;;;;;20.96;96696.20;;;;110526;1251;41255;-65
2022/02/21 09:00:27;;;;;;;7.20;3.00;;;;;22.46;96685.00;;;;110799;1251;41309;-73
2022/02/21 09:02:58;;;;;;;6.80;2.60;;;;;23.94;96683.00;;;;110733;1251;41891;-70
2022/02/21 09:05:31;;;;;;;6.30;2.70;;;;;25.40;96678.00;;;;110766;1251;41201;-69
2022/02/21 09:08:01;;;;;;;10.20;2.80;;;;;26.54;96668.60;;;;110781;1251;41259;-69
2022/02/21 09:10:31;;;;;;;4.80;2.10;;;;;27.04;96663.20;;;;110715;1252;41376;-72
2022/02/21 09:13:00;;;;;;;6.80;2.40;;;;;27.92;96654.20;;;;110723;1251;41128;-70
2022/02/21 09:15:30;;;;;;;6.60;2.20;;;;;28.64;96650.80;;;;110607;1252;41898;-72
2022/02/21 09:18:02;;;;;;;7.90;2.70;;;;;29.50;96653.00;;;;110784;1251;41156;-67
2022/02/21 09:20:32;;;;;;;6.80;2.50;;;;;29.74;96650.40;;;;110668;1252;42134;-73
2022/02/21 09:23:02;;;;;;;5.30;2.30;;;;;29.84;96646.20;;;;110681;1252;41270;-72
2022/02/21 09:25:32;;;;;;;7.50;2.30;;;;;29.24;96648.00;;;;110646;1251;41250;-73
2022/02/21 09:28:01;;;;;;;5.10;2.20;;;;;28.84;96641.00;;;;110876;1251;41163;-65
2022/02/21 09:30:31;;;;;;;6.50;2.40;;;;;29.12;96640.00;;;;110667;1251;41503;-67
2022/02/21 09:33:01;;;;;;;5.40;2.30;;;;;29.52;96632.00;;;;110641;1251;42469;-66
2022/02/21 09:35:30;;;;;;;6.20;2.30;;;;;29.34;96636.80;;;;110766;1251;41368;-73
2022/02/21 09:37:59;;;;;;;6.30;2.20;;;;;28.68;96628.20;;;;110861;1251;41183;-69
2022/02/21 09:40:29;;;;;;;7.50;2.60;;;;;27.90;96623.00;;;;110576;1254;41726;-72
2022/02/21 09:42:59;;;;;;;8.20;2.50;;;;;26.12;96618.80;;;;110743;1251;41263;-70
2022/02/21 09:45:29;;;;;;;;;;;;;27.68;96607.80;;;;110694;1251;41778;-72
2022/02/21 09:47:59;;;;;;;4.70;1.90;;;;;29.22;96604.20;;;;110631;1251;41160;-75
2022/02/21 09:50:39;;;;;;;6.60;2.50;;;;;30.78;96605.80;;;;110579;1251;41540;-70
2022/02/21 09:53:09;;;;;;;8.30;2.80;;;;;31.80;96606.20;;;;110541;1254;41143;-73
2022/02/21 09:55:39;;;;;;;6.50;2.50;;;;;30.08;96605.00;;;;110528;1253;41725;-68
2022/02/21 09:58:10;;;;;;;6.80;2.30;;;;;30.34;96591.80;;;;110691;1251;41159;-68
2022/02/21 10:00:39;;;;;;;;;;;;;30.22;96588.20;;;;110530;1254;42419;-70
2022/02/21 10:03:08;;;;;;;5.50;2.30;;;;;30.64;96592.80;;;;110589;1254;41161;-65
2022/02/21 10:05:37;;;;;;;6.20;2.30;;;;;31.08;96588.20;;;;110526;1254;41150;-65
2022/02/21 10:08:07;;;;;;;6.20;2.50;;;;;32.14;96585.40;;;;110496;1253;41265;-66
2022/02/21 10:10:37;;;;;;;;;;;;;32.78;96574.80;;;;110572;1254;41158;-66
2022/02/21 10:13:08;;;;;;;6.30;2.20;;;;;34.66;96560.80;;;;110567;1253;41152;-71
2022/02/21 10:15:37;;;;;;;6.50;2.50;;;;;35.84;96544.80;;;;110576;1254;41265;-67
2022/02/21 10:18:18;;;;;;;5.80;2.20;;;;;36.46;96543.40;;;;110566;1251;41159;-74
2022/02/21 10:20:52;;;;;;;;;;;;;37.28;96524.60;;;;110658;1251;41202;-71
2022/02/21 10:23:23;;;;;;;5.80;2.10;;;;;38.56;96519.80;;;;110704;1253;41812;-73
2022/02/21 10:26:05;;;;;;;;;;;;;39.44;96507.00;;;;110512;1254;41276;-68
2022/02/21 10:28:41;;;;;;;7.00;2.50;;;;;40.50;96503.40;;;;110816;1251;42216;-70
2022/02/21 10:31:15;;;;;;;5.40;2.00;;;;;39.88;96499.80;;;;110585;1254;41573;-65
2022/02/21 10:34:08;;;;;;;5.70;2.00;;;;;39.78;96492.60;;;;110560;1251;41130;-67
2022/02/21 10:36:39;;;;;;;5.90;2.20;;;;;40.34;96490.40;;;;110662;1252;41177;-66
2022/02/21 10:39:15;;;;;;;7.80;2.00;;;;;38.00;96493.20;;;;110712;1253;41777;-68
2022/02/21 10:41:47;;;;;;;5.20;2.00;;;;;38.62;96490.80;;;;110628;1254;41931;-72
2022/02/21 10:44:18;;;;;;;4.60;1.80;;;;;35.66;96489.60;;;;110478;1253;42417;-66
2022/02/21 10:47:10;;;;;;;4.10;1.70;;;;;35.38;96479.00;;;;110620;1253;41237;-65
2022/02/21 10:50:00;;;;;;;5.20;1.90;;;;;36.48;96474.80;;;;110666;1251;41690;-67
2022/02/21 10:52:39;;;;;;;5.10;1.80;;;;;37.28;96473.00;;;;110750;1251;40745;-71
2022/02/21 10:55:13;;;;;;;3.50;1.60;;;;;35.86;96461.40;;;;110734;1250;41380;-72
2022/02/21 10:57:44;;;;;;;5.30;2.00;;;;;36.90;96456.40;;;;110540;1253;41188;-69
2022/02/21 11:00:14;;;;;;;3.30;1.50;;;;;36.62;96442.00;;;;110643;1253;41486;-66
2022/02/21 11:02:44;;;;;;;4.60;1.80;;;;;36.70;96441.40;;;;110636;1254;41371;-71
2022/02/21 11:05:14;;;;;;;4.40;1.80;;;;;36.56;96440.80;;;;110850;1251;41250;-67
2022/02/21 11:07:45;;;;;;;4.60;1.80;;;;;36.38;96431.60;;;;110547;1251;41852;-68
2022/02/21 11:10:14;;;;;;;5.20;2.10;;;;;35.28;96421.20;;;;110767;1251;41684;-65
2022/02/21 11:12:49;;;;;;;4.90;1.80;;;;;34.28;96420.00;;;;110583;1251;41167;-67
2022/02/21 11:15:20;;;;;;;11.40;2.00;;;;;33.56;96413.80;;;;110790;1251;41143;-68
2022/02/21 11:17:54;;;;;;;5.80;1.90;;;;;32.54;96420.40;;;;110556;1251;41269;-69
2022/02/21 11:20:23;;;;;;;5.60;1.80;;;;;31.54;96406.20;;;;110411;1253;42456;-68
2022/02/21 11:22:53;;;;;;;4.80;1.70;;;;;30.56;96407.80;;;;110577;1251;41168;-70
2022/02/21 11:25:35;;;;;;;5.20;2.00;;;;;29.06;96406.20;;;;110794;1251;41242;-71
2022/02/21 11:28:24;;;;;;;5.50;2.00;;;;;27.32;96406.80;;;;110596;1254;41599;-67
2022/02/21 11:30:57;;;;;;;8.60;2.10;;;;;25.48;96405.40;;;;110491;1254;41439;-71
2022/02/21 11:33:28;;;;;;;5.50;2.00;;;;;24.00;96406.80;;;;110432;1253;41267;-70
2022/02/21 11:36:07;;;;;;;5.00;1.80;;;;;22.82;96403.80;;;;110793;1251;41508;-71
2022/02/21 11:38:40;;;;;;;6.00;2.10;;;;;21.70;96402.20;;;;110607;1251;41249;-72
2022/02/21 11:41:12;;;;;;;5.20;2.00;;;;;20.80;96398.40;;;;110584;1251;41170;-67
2022/02/21 11:43:51;;;;;;;4.00;1.80;;;;;20.30;96391.00;;;;110562;1254;41524;-69
2022/02/21 11:46:24;;;;;;;4.40;1.80;;;;;19.94;96389.80;;;;110589;1253;42502;-72
2022/02/21 11:48:56;;;;;;;9.10;2.30;;;;;20.00;96391.20;;;;110549;1252;41147;-72
2022/02/21 11:51:39;;;;;;;8.10;2.20;;;;;19.32;96391.60;;;;110539;1253;41736;-73
2022/02/21 11:54:11;;;;;;;6.60;2.20;;;;;19.00;96392.00;;;;110609;1251;41187;-72
2022/02/21 11:56:50;;;;;;;5.80;2.30;;;;;18.90;96388.60;;;;110560;1251;41166;-71
2022/02/21 11:59:25;;;;;;;6.00;2.20;;;;;18.50;96382.60;;;;110809;1250;41156;-69
2022/02/21 12:02:28;;;;;;;7.70;2.50;;;;;19.20;96371.60;;;;110510;1253;41266;-71
2022/02/21 12:04:59;;;;;;;8.90;2.50;;;;;19.70;96374.00;;;;109877;1260;41581;-71
2022/02/21 12:07:35;;;;;;;8.00;2.90;;;;;20.24;96369.60;;;;109915;1260;41160;-64
2022/02/21 12:10:21;;;;;;;6.70;2.50;;;;;19.80;96370.20;;;;110082;1260;41171;-66
2022/02/21 12:12:59;;;;;;;6.00;2.40;;;;;18.70;96367.00;;;;110080;1260;42996;-72
2022/02/21 12:15:31;;;;;;;7.50;2.30;;;;;18.26;96363.00;;;;109942;1260;41646;-71
2022/02/21 12:18:09;;;;;;;9.00;2.60;;;;;18.20;96363.80;;;;109935;1260;41612;-67
2022/02/21 12:20:42;;;;;;;6.30;2.50;;;;;17.96;96360.40;;;;109904;1260;42400;-74
2022/02/21 12:23:13;;;;;;;6.10;2.30;;;;;18.22;96354.60;;;;110004;1260;41064;-70
2022/02/21 12:26:07;;;;;;;6.90;2.40;;;;;19.10;96342.00;;;;110036;1260;41165;-66
2022/02/21 12:28:37;;;;;;;5.90;2.10;;;;;20.74;96327.60;;;;109924;1260;41208;-70
2022/02/21 12:31:22;;;;;;;5.70;2.10;;;;;22.66;96323.80;;;;109972;1259;41959;-70